Time;durP1;ratioP1;P1;durP2;ratioP2;P2;SDS_P1;SDS_P2;PMS_P1;PMS_P2;Temp;Humidity;BMP_temperature;BMP_pressure;BME280_temperature;BME280_humidity;BME280_pressure;Samples;Min_cycle;Max_cycle;Signal;HPM_P1;HPM_P2
2023/06/11 00:02:25;;;;;;;10.17;9.57;;;;;;;19.73;72.34;100809.16;5076160;28;20201;-82
2023/06/11 00:04:52;;;;;;;10.50;9.80;;;;;;;19.72;72.26;100811.88;5077978;28;20204;-82
2023/06/11 00:07:18;;;;;;;10.27;9.57;;;;;;;19.70;72.40;100816.38;5097121;28;20281;-82
2023/06/11 00:09:44;;;;;;;10.90;10.20;;;;;;;19.62;72.80;100809.69;5097308;28;20199;-82
2023/06/11 00:12:11;;;;;;;11.50;10.67;;;;;;;19.63;72.69;100808.75;5098050;28;20200;-82
2023/06/11 00:14:37;;;;;;;11.30;10.60;;;;;;;19.60;72.52;100808.03;5095667;28;20227;-80
2023/06/11 00:17:04;;;;;;;11.07;10.37;;;;;;;19.58;72.73;100815.19;5093764;28;20236;-81
2023/06/11 00:19:32;;;;;;;10.80;10.13;;;;;;;19.55;72.92;100813.56;5093544;28;20257;-80
2023/06/11 00:22:02;;;;;;;11.77;10.80;;;;;;;19.55;72.65;100810.06;5085592;28;20204;-81
2023/06/11 00:24:29;;;;;;;10.50;9.80;;;;;;;19.50;72.92;100806.78;5073998;28;20248;-80
2023/06/11 00:26:56;;;;;;;11.20;10.50;;;;;;;19.48;73.24;100803.38;5073682;28;20220;-81
2023/06/11 00:29:22;;;;;;;12.03;11.13;;;;;;;19.45;73.28;100807.88;5075793;28;20250;-81
2023/06/11 00:31:48;;;;;;;10.90;10.20;;;;;;;19.41;73.14;100808.13;5075123;28;20243;-79
2023/06/11 00:34:15;;;;;;;11.23;10.30;;;;;;;19.36;73.28;100799.53;5077618;28;20282;-81
2023/06/11 00:36:46;;;;;;;11.17;10.37;;;;;;;19.33;73.49;100795.25;5078681;28;20233;-81
2023/06/11 00:39:13;;;;;;;11.67;10.77;;;;;;;19.32;73.46;100798.81;5078605;28;20204;-81
2023/06/11 00:41:45;;;;;;;11.10;10.23;;;;;;;19.29;73.32;100796.34;5078496;28;20212;-81
2023/06/11 00:44:17;;;;;;;11.07;10.13;;;;;;;19.28;73.36;100791.13;5079169;28;20219;-81
2023/06/11 00:46:45;;;;;;;10.67;10.07;;;;;;;19.24;73.61;100795.72;5079023;28;20672;-80
2023/06/11 00:49:12;;;;;;;10.57;9.87;;;;;;;19.22;73.48;100793.13;5079202;28;20263;-81
2023/06/11 00:51:39;;;;;;;10.57;9.90;;;;;;;19.19;73.55;100798.59;5084877;28;20280;-81
2023/06/11 00:54:07;;;;;;;10.20;9.50;;;;;;;19.17;73.89;100800.47;5078452;28;20714;-82
2023/06/11 00:56:34;;;;;;;10.70;9.70;;;;;;;19.13;74.08;100790.97;5078496;28;20237;-81
2023/06/11 00:59:01;;;;;;;11.07;10.33;;;;;;;19.12;74.00;100794.53;5079002;28;20196;-80
2023/06/11 01:01:33;;;;;;;10.60;9.80;;;;;;;19.04;74.10;100788.75;5081129;28;20200;-79
2023/06/11 01:04:00;;;;;;;10.83;10.13;;;;;;;18.97;74.74;100780.25;5076734;28;20295;-80
2023/06/11 01:06:33;;;;;;;12.87;11.77;;;;;;;18.97;74.63;100777.63;5075473;28;20229;-81
2023/06/11 01:09:01;;;;;;;11.23;10.43;;;;;;;18.94;75.03;100775.09;5075883;28;20213;-80
2023/06/11 01:11:32;;;;;;;11.43;10.63;;;;;;;18.87;75.10;100765.78;5075417;28;20216;-80
2023/06/11 01:14:00;;;;;;;11.83;11.03;;;;;;;18.84;75.55;100761.47;5075401;28;20229;-80
2023/06/11 01:16:34;;;;;;;11.40;10.67;;;;;;;18.81;75.62;100756.34;5075580;28;20228;-80
2023/06/11 01:19:10;;;;;;;10.80;10.10;;;;;;;18.75;76.06;100753.09;5074999;28;20232;-80
2023/06/11 01:21:43;;;;;;;12.50;11.33;;;;;;;18.70;76.25;100745.38;5080993;28;20205;-81
2023/06/11 01:24:21;;;;;;;12.03;11.17;;;;;;;18.64;76.38;100735.09;5075698;28;20204;-80
2023/06/11 01:27:00;;;;;;;12.40;11.50;;;;;;;18.63;76.60;100730.72;5075371;28;20582;-79
2023/06/11 01:29:29;;;;;;;11.27;10.30;;;;;;;18.58;76.50;100723.03;5075429;28;20254;-81
2023/06/11 01:31:58;;;;;;;11.80;10.83;;;;;;;18.58;76.42;100738.03;5075076;28;20251;-80
2023/06/11 01:34:25;;;;;;;11.60;10.70;;;;;;;18.54;76.56;100737.31;5075136;28;20282;-80
2023/06/11 01:36:51;;;;;;;10.87;10.17;;;;;;;18.55;76.42;100746.97;5074797;28;20221;-80
2023/06/11 01:39:19;;;;;;;11.37;10.67;;;;;;;18.52;76.39;100741.81;5074957;28;20209;-80
2023/06/11 01:41:45;;;;;;;11.53;10.73;;;;;;;18.53;76.11;100753.25;5074712;28;20239;-81
2023/06/11 01:44:12;;;;;;;12.73;11.87;;;;;;;18.48;76.75;100752.63;5074256;28;20725;-80
2023/06/11 01:46:40;;;;;;;12.83;11.73;;;;;;;18.49;76.76;100747.25;5074389;28;20224;-79
2023/06/11 01:49:06;;;;;;;12.07;11.17;;;;;;;18.49;77.04;100747.25;5074945;28;20297;-80
2023/06/11 01:51:33;;;;;;;12.03;11.03;;;;;;;18.45;77.00;100743.91;5086154;28;20258;-80
2023/06/11 01:54:00;;;;;;;12.63;11.10;;;;;;;18.44;77.33;100742.19;5077473;28;20204;-80
2023/06/11 01:56:27;;;;;;;12.53;11.60;;;;;;;18.44;77.46;100742.19;5074686;28;20620;-80
2023/06/11 01:58:54;;;;;;;12.60;11.57;;;;;;;18.41;77.32;100733.53;5073889;28;20254;-80
2023/06/11 02:01:23;;;;;;;12.50;11.70;;;;;;;18.38;77.19;100731.06;5074090;28;20211;-80
2023/06/11 02:03:51;;;;;;;11.77;10.70;;;;;;;18.38;77.17;100733.69;5074280;28;20205;-80
2023/06/11 02:06:17;;;;;;;13.13;12.13;;;;;;;18.35;77.66;100731.19;5074117;28;20212;-80
2023/06/11 02:08:44;;;;;;;11.83;11.03;;;;;;;18.32;77.33;100733.97;5074465;28;20204;-79
2023/06/11 02:11:11;;;;;;;11.57;10.80;;;;;;;18.31;77.42;100732.25;5074145;28;20262;-81
2023/06/11 02:13:38;;;;;;;11.53;10.43;;;;;;;18.29;77.35;100729.69;5074479;28;20296;-80
2023/06/11 02:16:05;;;;;;;12.00;11.10;;;;;;;18.25;77.58;100733.38;5073860;28;20300;-80
2023/06/11 02:18:31;;;;;;;12.47;11.17;;;;;;;18.22;77.58;100721.19;5074223;28;20204;-80
2023/06/11 02:21:00;;;;;;;11.07;10.37;;;;;;;18.19;78.07;100723.09;5075987;28;20200;-80
2023/06/11 02:23:27;;;;;;;13.23;10.83;;;;;;;18.15;77.88;100730.31;5074349;28;20254;-81
2023/06/11 02:25:53;;;;;;;11.73;10.80;;;;;;;18.13;78.03;100723.38;5074540;28;20265;-80
2023/06/11 02:28:20;;;;;;;12.33;11.33;;;;;;;18.07;78.29;100724.53;5073619;28;20221;-80
2023/06/11 02:30:46;;;;;;;12.17;11.10;;;;;;;18.04;78.81;100708.84;5074034;28;20209;-81
2023/06/11 02:33:12;;;;;;;12.07;11.27;;;;;;;18.00;78.79;100708.09;5073902;28;20679;-80
2023/06/11 02:35:39;;;;;;;11.57;10.77;;;;;;;17.95;78.54;100712.72;5074544;28;20232;-82
2023/06/11 02:38:07;;;;;;;11.37;10.57;;;;;;;17.91;79.02;100705.88;5074409;28;20285;-80
2023/06/11 02:40:33;;;;;;;12.10;11.10;;;;;;;17.91;79.09;100707.66;5075664;28;20204;-80
2023/06/11 02:42:59;;;;;;;11.53;10.67;;;;;;;17.88;79.07;100698.09;5075151;28;20204;-82
2023/06/11 02:45:26;;;;;;;10.53;9.83;;;;;;;17.80;79.34;100697.53;5075001;28;20196;-80
2023/06/11 02:47:52;;;;;;;11.50;10.73;;;;;;;17.82;79.55;100699.19;5074972;28;20727;-83
2023/06/11 02:50:18;;;;;;;11.83;10.80;;;;;;;17.77;79.44;100697.69;5075551;28;20298;-82
2023/06/11 02:52:45;;;;;;;10.67;9.87;;;;;;;17.76;79.47;100703.88;5075954;28;20204;-81
2023/06/11 02:55:13;;;;;;;10.60;9.80;;;;;;;17.77;79.23;100702.97;5076272;28;20718;-81
2023/06/11 02:57:39;;;;;;;11.30;10.27;;;;;;;17.76;79.07;100711.81;5075888;28;20229;-81
2023/06/11 03:00:08;;;;;;;10.90;10.07;;;;;;;17.70;79.83;100706.78;5075467;28;20204;-80
2023/06/11 03:02:35;;;;;;;11.20;10.30;;;;;;;17.65;79.78;100694.66;5075957;28;20323;-82
2023/06/11 03:05:01;;;;;;;10.60;9.90;;;;;;;17.66;79.78;100699.03;5076803;28;20200;-81
2023/06/11 03:07:27;;;;;;;11.23;10.37;;;;;;;17.65;79.76;100709.66;5076143;28;20778;-81
2023/06/11 03:09:54;;;;;;;11.30;10.40;;;;;;;17.58;79.87;100708.19;5076545;28;20201;-82
2023/06/11 03:12:22;;;;;;;11.53;10.67;;;;;;;17.52;80.24;100704.06;5076104;28;20675;-82
2023/06/11 03:14:48;;;;;;;10.57;9.80;;;;;;;17.52;80.62;100697.91;5076438;28;20225;-81
2023/06/11 03:17:14;;;;;;;11.23;10.23;;;;;;;17.51;80.46;100693.56;5076029;28;20225;-82
2023/06/11 03:19:41;;;;;;;11.27;10.37;;;;;;;17.47;80.65;100692.84;5076297;28;20208;-82
2023/06/11 03:22:07;;;;;;;11.23;10.30;;;;;;;17.46;80.70;100697.28;5076813;28;20204;-82
2023/06/11 03:24:34;;;;;;;11.70;10.80;;;;;;;17.45;80.96;100698.19;5076727;28;20208;-81
2023/06/11 03:27:00;;;;;;;11.17;9.70;;;;;;;17.45;80.66;100695.53;5076132;28;20224;-82
2023/06/11 03:29:28;;;;;;;12.77;10.53;;;;;;;17.39;81.03;100695.81;5076324;28;20196;-82
2023/06/11 03:31:54;;;;;;;10.67;9.90;;;;;;;17.35;81.31;100688.09;5076486;28;20208;-82
2023/06/11 03:34:21;;;;;;;10.87;10.03;;;;;;;17.29;81.50;100694.50;5076540;28;20216;-82
2023/06/11 03:36:47;;;;;;;10.80;10.17;;;;;;;17.25;82.11;100679.72;5075958;28;20232;-82
2023/06/11 03:39:13;;;;;;;11.30;10.17;;;;;;;17.26;81.46;100681.41;5076048;28;20207;-82
2023/06/11 03:41:40;;;;;;;11.27;10.47;;;;;;;17.31;81.46;100679.44;5076384;28;20217;-82
2023/06/11 03:44:06;;;;;;;10.60;9.67;;;;;;;17.34;81.28;100692.50;5076238;28;20257;-82
2023/06/11 03:46:34;;;;;;;10.23;9.53;;;;;;;17.34;81.18;100691.66;5076340;28;20656;-82
2023/06/11 03:49:01;;;;;;;10.40;9.60;;;;;;;17.34;81.03;100700.41;5075900;28;20255;-82
2023/06/11 03:51:27;;;;;;;11.67;9.83;;;;;;;17.37;80.84;100702.94;5081059;28;20204;-82
2023/06/11 03:53:53;;;;;;;10.07;9.27;;;;;;;17.36;80.60;100705.63;5096919;28;20216;-82
2023/06/11 03:56:25;;;;;;;10.27;9.47;;;;;;;17.34;80.77;100710.97;5097091;28;20311;-83
2023/06/11 03:58:51;;;;;;;10.53;9.53;;;;;;;17.37;80.86;100712.63;5097402;28;20208;-82
2023/06/11 04:01:18;;;;;;;10.60;9.70;;;;;;;17.37;80.62;100716.13;5097324;28;20701;-83
2023/06/11 04:03:45;;;;;;;10.10;9.37;;;;;;;17.36;81.06;100717.06;5097525;28;20661;-82
2023/06/11 04:06:12;;;;;;;10.10;9.40;;;;;;;17.36;80.93;100716.19;5096619;28;20207;-82
2023/06/11 04:08:39;;;;;;;10.07;9.27;;;;;;;17.34;81.28;100708.31;5098186;28;20257;-82
2023/06/11 04:11:05;;;;;;;11.50;9.43;;;;;;;17.35;81.33;100707.41;5100987;28;20207;-82
2023/06/11 04:13:31;;;;;;;10.93;9.83;;;;;;;17.37;81.28;100710.00;5101849;28;20210;-82
2023/06/11 04:15:58;;;;;;;9.83;9.13;;;;;;;17.37;81.50;100720.56;5101534;28;20228;-82
2023/06/11 04:18:24;;;;;;;9.87;9.10;;;;;;;17.39;81.10;100710.78;5102324;28;20587;-82
2023/06/11 04:20:52;;;;;;;9.63;8.93;;;;;;;17.38;81.02;100720.50;5102824;28;20204;-82
2023/06/11 04:23:20;;;;;;;10.77;9.90;;;;;;;17.40;81.46;100710.72;5091088;28;20204;-81
2023/06/11 04:25:48;;;;;;;10.87;9.63;;;;;;;17.40;81.21;100716.00;5098596;28;20204;-82
2023/06/11 04:28:16;;;;;;;10.37;9.50;;;;;;;17.40;81.45;100709.84;5098968;28;20227;-81
2023/06/11 04:30:42;;;;;;;9.67;8.87;;;;;;;17.40;81.38;100717.75;5098804;28;20199;-81
2023/06/11 04:33:09;;;;;;;8.90;8.20;;;;;;;17.44;80.97;100727.25;5098542;28;20200;-81
2023/06/11 04:35:35;;;;;;;10.07;9.17;;;;;;;17.45;81.24;100727.22;5099048;28;20767;-82
2023/06/11 04:38:06;;;;;;;11.53;9.17;;;;;;;17.46;81.46;100720.13;5098656;28;20227;-81
2023/06/11 04:40:34;;;;;;;9.60;8.90;;;;;;;17.47;80.96;100729.78;5099660;28;20207;-82
2023/06/11 04:43:00;;;;;;;9.13;8.43;;;;;;;17.49;81.32;100727.94;5100320;28;20200;-82
2023/06/11 04:45:28;;;;;;;10.63;9.80;;;;;;;17.52;81.00;100729.56;5100302;28;20200;-82
2023/06/11 04:47:54;;;;;;;9.80;9.00;;;;;;;17.52;81.58;100722.53;5100208;28;20232;-82
2023/06/11 04:50:21;;;;;;;9.53;8.93;;;;;;;17.56;81.27;100721.47;5103747;28;20204;-81
2023/06/11 04:52:52;;;;;;;9.97;9.17;;;;;;;17.56;80.85;100732.03;5087787;28;20218;-80
2023/06/11 04:55:24;;;;;;;9.63;8.90;;;;;;;17.58;81.28;100727.56;5096567;28;20227;-81
2023/06/11 04:57:51;;;;;;;10.63;9.57;;;;;;;17.63;81.54;100717.63;5096741;28;20220;-82
2023/06/11 05:00:18;;;;;;;10.00;9.20;;;;;;;17.67;80.97;100727.13;5097338;28;20200;-80
2023/06/11 05:02:45;;;;;;;9.83;9.00;;;;;;;17.70;80.87;100730.56;5096160;28;20209;-81
2023/06/11 05:05:12;;;;;;;9.50;8.87;;;;;;;17.73;81.09;100730.44;5096707;28;20200;-80
2023/06/11 05:10:07;;;;;;;10.77;9.73;;;;;;;17.81;81.21;100734.44;5058308;28;20271;-82
2023/06/11 05:12:35;;;;;;;10.57;9.70;;;;;;;17.85;81.27;100737.84;5063223;28;20213;-82
2023/06/11 05:15:01;;;;;;;9.77;9.17;;;;;;;17.88;81.45;100732.44;5063772;28;20209;-83
2023/06/11 05:17:28;;;;;;;9.90;9.30;;;;;;;17.93;81.11;100741.00;5077467;28;20205;-81
2023/06/11 05:19:54;;;;;;;10.60;9.60;;;;;;;17.96;81.53;100727.66;5086600;28;20224;-81
2023/06/11 05:22:21;;;;;;;10.07;9.20;;;;;;;18.01;81.00;100733.59;5066437;28;20209;-81
2023/06/11 05:24:47;;;;;;;10.23;9.43;;;;;;;18.07;80.88;100745.66;5059071;28;20202;-79
2023/06/11 05:27:14;;;;;;;10.47;9.57;;;;;;;18.09;80.71;100749.09;5058963;28;20209;-79
2023/06/11 05:29:42;;;;;;;10.63;9.77;;;;;;;18.16;80.81;100750.53;5059453;28;20225;-80
2023/06/11 05:32:09;;;;;;;10.90;9.80;;;;;;;18.21;80.03;100766.16;5060017;28;20798;-80
2023/06/11 05:34:37;;;;;;;10.83;9.93;;;;;;;18.23;79.27;100782.81;5059939;28;20572;-80
2023/06/11 05:37:03;;;;;;;10.53;9.67;;;;;;;18.25;79.44;100787.13;5059256;28;20293;-80
2023/06/11 05:39:30;;;;;;;10.40;9.63;;;;;;;18.30;79.89;100796.63;5059626;28;20229;-78
2023/06/11 05:41:56;;;;;;;10.80;10.00;;;;;;;18.33;79.63;100793.81;5059006;28;20258;-78
2023/06/11 05:44:23;;;;;;;10.03;9.43;;;;;;;18.37;79.85;100795.41;5058457;28;20212;-78
2023/06/11 05:46:50;;;;;;;10.00;9.10;;;;;;;18.44;80.55;100780.97;5057599;28;20202;-80
2023/06/11 05:49:17;;;;;;;10.93;10.03;;;;;;;18.48;79.42;100790.50;5057652;28;20234;-79
2023/06/11 05:51:43;;;;;;;11.10;10.17;;;;;;;18.52;79.28;100801.78;5058608;28;20201;-79
2023/06/11 05:54:10;;;;;;;11.00;10.30;;;;;;;18.57;78.73;100823.56;5058588;28;20741;-80
2023/06/11 05:56:36;;;;;;;11.37;10.57;;;;;;;18.60;78.73;100824.28;5057896;28;20225;-80
2023/06/11 05:59:02;;;;;;;10.67;9.97;;;;;;;18.64;77.76;100840.88;5058518;28;20255;-79
2023/06/11 06:01:32;;;;;;;10.97;10.13;;;;;;;18.69;77.16;100864.44;5057661;28;20301;-79
2023/06/11 06:04:00;;;;;;;11.20;10.30;;;;;;;18.72;77.19;100872.25;5057383;28;20229;-80
2023/06/11 06:06:27;;;;;;;11.73;10.77;;;;;;;18.78;76.92;100882.53;5058289;28;20205;-81
2023/06/11 06:08:54;;;;;;;11.30;10.50;;;;;;;18.83;77.95;100865.56;5068602;28;20221;-80
2023/06/11 06:11:20;;;;;;;11.30;10.50;;;;;;;18.90;77.52;100863.50;5078924;28;20209;-79
2023/06/11 06:13:46;;;;;;;12.40;11.17;;;;;;;18.96;77.35;100883.50;5074164;28;20204;-80
2023/06/11 06:16:13;;;;;;;11.33;10.53;;;;;;;18.99;76.36;100901.91;5073434;28;20225;-81
2023/06/11 06:18:41;;;;;;;11.40;10.60;;;;;;;19.03;76.32;100911.41;5071797;28;20227;-80
2023/06/11 06:21:08;;;;;;;11.60;10.53;;;;;;;19.06;76.72;100913.91;5071404;28;20279;-81
2023/06/11 06:23:35;;;;;;;12.47;11.37;;;;;;;19.12;76.82;100908.31;5068623;28;20201;-81
2023/06/11 06:26:01;;;;;;;11.57;10.67;;;;;;;19.17;76.85;100911.63;5072752;28;20224;-80
2023/06/11 06:28:27;;;;;;;12.57;11.67;;;;;;;19.22;76.40;100899.00;5067672;28;20231;-79
2023/06/11 06:30:54;;;;;;;12.40;11.37;;;;;;;19.29;76.08;100906.69;5065911;28;20197;-79
2023/06/11 06:33:21;;;;;;;13.10;12.13;;;;;;;19.34;75.58;100928.47;5067216;28;20699;-79
2023/06/11 06:35:47;;;;;;;13.07;12.13;;;;;;;19.42;75.90;100928.97;5065668;28;20227;-79
2023/06/11 06:38:15;;;;;;;12.70;11.50;;;;;;;19.45;75.34;100929.69;5065853;28;20229;-79
2023/06/11 06:40:41;;;;;;;12.60;11.80;;;;;;;19.51;74.80;100947.06;5067455;28;20196;-80
2023/06/11 06:43:07;;;;;;;12.77;11.87;;;;;;;19.57;74.47;100957.34;5068386;28;20252;-79
2023/06/11 06:45:34;;;;;;;12.40;11.57;;;;;;;19.61;74.47;100974.81;5068233;28;20201;-80
2023/06/11 06:48:01;;;;;;;12.40;11.50;;;;;;;19.65;74.67;100975.53;5068166;28;20304;-79
2023/06/11 06:50:27;;;;;;;12.77;11.90;;;;;;;19.68;74.55;100963.91;5067248;28;20201;-80
2023/06/11 06:52:53;;;;;;;12.70;11.70;;;;;;;19.73;74.31;100980.50;5067055;28;20227;-80
2023/06/11 06:55:21;;;;;;;12.90;11.90;;;;;;;19.79;74.59;100967.78;5068565;28;20634;-78
2023/06/11 06:57:47;;;;;;;13.03;11.93;;;;;;;19.82;74.06;100975.59;5066573;28;20577;-79
2023/06/11 07:00:16;;;;;;;12.10;11.30;;;;;;;19.85;73.91;100977.25;5067413;28;20205;-80
2023/06/11 07:02:42;;;;;;;11.97;11.10;;;;;;;19.93;73.00;101000.72;5067249;28;20204;-79
2023/06/11 07:05:10;;;;;;;12.93;11.87;;;;;;;19.96;72.66;101014.69;5066473;28;20202;-79
2023/06/11 07:07:36;;;;;;;11.97;10.97;;;;;;;20.00;72.58;101023.34;5065648;28;20200;-80
2023/06/11 07:10:02;;;;;;;12.43;11.53;;;;;;;20.06;72.19;101024.81;5070978;28;20810;-79
2023/06/11 07:12:30;;;;;;;12.47;11.57;;;;;;;20.09;72.27;101036.13;5070728;28;20213;-81
2023/06/11 07:14:56;;;;;;;11.80;10.83;;;;;;;20.15;72.55;101025.22;5072125;28;20235;-82
2023/06/11 07:17:25;;;;;;;12.03;11.13;;;;;;;20.21;72.00;101034.66;5071898;28;20228;-80
2023/06/11 07:19:52;;;;;;;11.67;10.80;;;;;;;20.27;71.02;101049.41;5067836;28;20226;-81
2023/06/11 07:22:18;;;;;;;11.90;11.00;;;;;;;20.32;70.48;101076.56;5067016;28;20557;-81
2023/06/11 07:24:47;;;;;;;11.97;11.17;;;;;;;20.36;70.48;101084.28;5067461;28;20615;-81
2023/06/11 07:27:13;;;;;;;12.00;10.77;;;;;;;20.41;70.23;101089.34;5068156;28;20227;-81
2023/06/11 07:29:41;;;;;;;11.83;11.00;;;;;;;20.40;71.25;101085.84;5068522;28;20572;-81
2023/06/11 07:32:08;;;;;;;11.33;10.43;;;;;;;20.50;70.03;101085.41;5068139;28;20585;-79
2023/06/11 07:34:35;;;;;;;11.77;10.87;;;;;;;20.57;69.13;101110.66;5077971;28;20603;-80
2023/06/11 07:37:01;;;;;;;11.77;10.77;;;;;;;20.69;70.76;101077.38;5079201;28;20224;-81
2023/06/11 07:39:27;;;;;;;12.03;11.13;;;;;;;20.72;69.21;101099.31;5075621;28;20224;-80
2023/06/11 07:41:54;;;;;;;11.53;10.83;;;;;;;20.79;68.69;101123.72;5079314;28;20208;-82
2023/06/11 07:44:20;;;;;;;11.90;11.10;;;;;;;20.83;68.27;101147.41;5081038;28;20201;-81
2023/06/11 07:46:48;;;;;;;11.70;10.90;;;;;;;20.87;67.13;101171.13;5082633;28;20228;-79
2023/06/11 07:49:14;;;;;;;11.37;10.53;;;;;;;20.89;67.50;101198.44;5081682;28;20289;-81
2023/06/11 07:51:42;;;;;;;11.10;10.30;;;;;;;20.93;67.90;101184.94;5076013;28;20228;-81
2023/06/11 07:54:08;;;;;;;11.17;10.37;;;;;;;20.94;67.00;101197.28;4367209;28;10000817;-79
2023/06/11 07:56:34;;;;;;;11.43;10.40;;;;;;;20.97;67.14;101196.25;5059742;28;20234;-80
2023/06/11 07:59:01;;;;;;;11.80;10.80;;;;;;;20.98;67.32;101193.53;5057951;28;20291;-80
2023/06/11 08:01:27;;;;;;;11.50;10.70;;;;;;;21.05;67.94;101177.28;5059315;28;20243;-81
2023/06/11 08:03:55;;;;;;;11.20;10.30;;;;;;;21.13;67.24;101170.66;5054081;28;20298;-82
2023/06/11 08:06:21;;;;;;;11.47;10.50;;;;;;;21.19;67.27;101173.00;5052385;28;20753;-81
2023/06/11 08:08:48;;;;;;;11.40;10.30;;;;;;;21.25;66.93;101179.78;5052000;28;20237;-82
2023/06/11 08:11:14;;;;;;;11.00;10.00;;;;;;;21.31;66.31;101189.25;5051931;28;20207;-82
2023/06/11 08:13:41;;;;;;;10.50;9.67;;;;;;;21.35;66.79;101174.84;5052224;28;20214;-81
2023/06/11 08:16:08;;;;;;;10.43;9.63;;;;;;;21.43;65.67;101196.59;5051753;28;20754;-81
2023/06/11 08:18:34;;;;;;;10.90;10.13;;;;;;;21.48;65.32;101220.25;5051181;28;20287;-81
2023/06/11 08:21:02;;;;;;;10.70;9.90;;;;;;;21.56;64.64;101242.81;5052062;28;20201;-82
2023/06/11 08:23:29;;;;;;;10.73;9.73;;;;;;;21.57;66.13;101233.91;5052012;28;20201;-82
2023/06/11 08:25:58;;;;;;;10.67;9.87;;;;;;;21.63;65.84;101224.78;5053282;28;20214;-82
2023/06/11 08:28:25;;;;;;;10.40;9.53;;;;;;;21.66;67.51;101187.38;5050769;28;20937;-82
2023/06/11 08:30:51;;;;;;;9.87;9.17;;;;;;;21.75;64.45;101202.84;5051103;28;20316;-83
2023/06/11 08:33:18;;;;;;;10.50;9.50;;;;;;;21.81;64.36;101242.38;5051410;28;20209;-82
2023/06/11 08:35:45;;;;;;;9.67;9.07;;;;;;;21.89;63.91;101254.41;5053182;28;20631;-83
2023/06/11 08:38:12;;;;;;;10.67;9.87;;;;;;;21.94;63.70;101277.16;5067814;28;20350;-82
2023/06/11 08:40:41;;;;;;;10.50;9.70;;;;;;;22.02;62.73;101284.72;5061985;28;20202;-81
2023/06/11 08:43:07;;;;;;;9.40;8.80;;;;;;;22.08;62.52;101296.81;5062633;28;20401;-82
2023/06/11 08:45:34;;;;;;;8.07;7.57;;;;;;;22.14;62.60;101305.34;5065734;28;20260;-83
2023/06/11 08:48:03;;;;;;;10.00;9.20;;;;;;;22.19;61.52;101329.03;5064527;28;20213;-81
2023/06/11 08:50:31;;;;;;;8.40;7.80;;;;;;;22.25;61.31;101343.84;5066012;28;20197;-81
2023/06/11 08:53:00;;;;;;;8.20;7.50;;;;;;;22.32;60.85;101350.53;5063693;28;20194;-82
2023/06/11 08:55:28;;;;;;;8.63;8.03;;;;;;;22.40;60.17;101374.94;5066929;28;20201;-82
2023/06/11 08:57:55;;;;;;;8.73;8.03;;;;;;;22.41;62.43;101318.97;5073898;28;20756;-83
2023/06/11 09:00:22;;;;;;;9.43;8.60;;;;;;;22.47;63.28;101295.63;5079197;28;20231;-83
2023/06/11 09:02:49;;;;;;;9.23;8.60;;;;;;;22.56;62.57;101292.47;5081662;28;20595;-82
2023/06/11 09:05:15;;;;;;;9.13;8.30;;;;;;;22.64;60.79;101306.22;5085665;28;20200;-83
2023/06/11 09:07:48;;;;;;;9.23;8.43;;;;;;;22.70;59.87;101355.59;5085123;28;20200;-83
2023/06/11 09:10:15;;;;;;;8.30;7.70;;;;;;;22.75;60.07;101361.50;5084135;28;20205;-81
2023/06/11 09:12:43;;;;;;;8.77;8.17;;;;;;;22.84;58.77;101381.44;5082422;28;20667;-81
2023/06/11 09:15:12;;;;;;;8.47;7.87;;;;;;;22.88;58.37;101394.50;5072037;28;20710;-82
2023/06/11 09:17:40;;;;;;;8.67;7.83;;;;;;;22.96;57.98;101418.03;5080368;28;20283;-82
2023/06/11 09:20:08;;;;;;;8.20;7.40;;;;;;;22.99;56.85;101465.78;5080735;28;20236;-82
2023/06/11 09:22:37;;;;;;;8.67;7.93;;;;;;;23.06;56.92;101493.84;5080863;28;20250;-82
2023/06/11 09:25:05;;;;;;;8.30;7.70;;;;;;;23.07;57.51;101481.38;5081299;28;20205;-81
2023/06/11 09:27:32;;;;;;;7.60;7.00;;;;;;;23.15;56.04;101498.69;5081457;28;20266;-82
2023/06/11 09:30:11;;;;;;;7.97;7.27;;;;;;;23.24;56.24;101485.78;5079719;28;20589;-81
2023/06/11 09:32:41;;;;;;;8.23;7.57;;;;;;;23.31;59.56;101488.03;5079947;28;20215;-81
2023/06/11 09:35:08;;;;;;;7.30;6.70;;;;;;;23.39;59.47;101421.00;5079690;28;20231;-81
2023/06/11 09:37:43;;;;;;;6.60;6.10;;;;;;;23.47;57.94;101440.06;5079869;28;20229;-82
2023/06/11 09:40:11;;;;;;;7.30;6.67;;;;;;;23.54;51.94;101518.69;5082174;28;20209;-81
2023/06/11 09:42:38;;;;;;;7.03;6.33;;;;;;;23.59;51.66;101601.94;5081350;28;20262;-81
2023/06/11 09:45:07;;;;;;;6.27;5.77;;;;;;;23.69;50.15;101660.09;5080144;28;20209;-82
2023/06/11 09:47:37;;;;;;;13.20;6.53;;;;;;;23.75;49.31;101705.94;5060860;28;20212;-82
2023/06/11 09:50:06;;;;;;;7.47;6.83;;;;;;;23.81;50.46;101743.94;5062025;28;20209;-81
2023/06/11 09:52:33;;;;;;;7.10;6.50;;;;;;;23.85;51.65;101708.16;5062063;28;20214;-81
2023/06/11 09:55:00;;;;;;;7.07;6.57;;;;;;;23.93;52.03;101649.91;5062603;28;20248;-81
2023/06/11 09:57:29;;;;;;;6.83;6.20;;;;;;;24.03;50.13;101659.13;5061938;28;20221;-79
2023/06/11 09:59:56;;;;;;;6.43;5.83;;;;;;;24.10;49.79;101689.84;5064124;28;20225;-82
2023/06/11 10:02:22;;;;;;;7.20;6.00;;;;;;;24.18;48.75;101722.31;5067828;28;20202;-81
2023/06/11 10:04:50;;;;;;;6.50;6.00;;;;;;;24.26;48.13;101756.56;5066643;28;20273;-82
2023/06/11 10:07:18;;;;;;;6.13;5.63;;;;;;;24.33;47.22;101783.75;5065283;28;20248;-81
2023/06/11 10:09:46;;;;;;;5.60;5.10;;;;;;;24.41;45.33;101826.91;5070015;28;20648;-80
2023/06/11 10:12:15;;;;;;;5.87;5.37;;;;;;;24.48;44.47;101888.81;5084719;28;20221;-80
2023/06/11 10:14:42;;;;;;;5.80;5.40;;;;;;;24.51;45.27;101910.03;5079372;28;20205;-80
2023/06/11 10:17:09;;;;;;;6.20;5.77;;;;;;;24.57;45.14;101899.03;5085942;28;20261;-81
2023/06/11 10:19:36;;;;;;;5.70;5.30;;;;;;;24.62;44.01;101913.00;5089953;28;20278;-81
2023/06/11 10:22:04;;;;;;;6.53;5.90;;;;;;;24.67;43.29;101952.78;5082203;28;20307;-78
2023/06/11 10:24:31;;;;;;;5.20;4.67;;;;;;;24.72;41.86;101978.31;5084260;28;20209;-80
2023/06/11 10:27:05;;;;;;;6.17;4.20;;;;;;;24.80;39.60;102046.47;5081676;28;20250;-81
2023/06/11 10:29:37;;;;;;;4.20;3.80;;;;;;;24.85;38.55;102104.03;5087580;28;20216;-82
2023/06/11 10:32:04;;;;;;;4.93;3.97;;;;;;;24.90;38.34;102155.44;5095724;28;20265;-82
2023/06/11 10:34:38;;;;;;;3.83;3.53;;;;;;;24.96;37.36;102170.28;5087887;28;20611;-81
2023/06/11 10:37:06;;;;;;;4.03;3.67;;;;;;;25.02;36.47;102235.91;5084733;28;20234;-79
2023/06/11 10:39:33;;;;;;;3.77;3.47;;;;;;;25.09;37.57;102243.50;5080003;28;20259;-80
2023/06/11 10:42:00;;;;;;;5.03;4.20;;;;;;;25.17;37.87;102238.66;5082438;28;20205;-81
2023/06/11 10:44:29;;;;;;;6.17;3.77;;;;;;;25.23;37.15;102204.53;5073455;28;20208;-82
2023/06/11 10:46:56;;;;;;;6.53;3.50;;;;;;;25.25;35.99;102232.94;5064547;28;20201;-81
2023/06/11 10:49:23;;;;;;;9.70;4.00;;;;;;;25.28;36.07;102267.53;5059582;28;20255;-80
2023/06/11 10:51:50;;;;;;;4.10;3.60;;;;;;;25.34;37.18;102234.25;5058986;28;20690;-80
2023/06/11 10:54:25;;;;;;;3.80;3.40;;;;;;;25.41;34.98;102250.81;5060677;28;20215;-80
2023/06/11 10:56:52;;;;;;;4.63;4.20;;;;;;;25.47;36.34;102258.53;5060180;28;20272;-82
2023/06/11 10:59:19;;;;;;;5.93;3.97;;;;;;;25.52;35.94;102227.06;5058775;28;20715;-81
2023/06/11 11:01:45;;;;;;;4.33;4.03;;;;;;;25.57;36.34;102214.31;5059310;28;20205;-81
2023/06/11 11:04:12;;;;;;;3.43;3.13;;;;;;;25.62;36.67;102216.75;5059246;28;20213;-80
2023/06/11 11:06:39;;;;;;;4.13;3.60;;;;;;;25.68;34.45;102227.97;5057831;28;20267;-80
2023/06/11 11:09:06;;;;;;;3.57;3.23;;;;;;;25.75;35.32;102271.31;5077796;23;20330;-84
2023/06/11 11:11:34;;;;;;;4.13;3.73;;;;;;;25.84;34.62;102270.78;5058248;28;20217;-82
2023/06/11 11:14:00;;;;;;;3.10;2.90;;;;;;;25.90;34.46;102269.59;5059662;28;20273;-84
2023/06/11 11:16:27;;;;;;;4.00;3.60;;;;;;;26.01;35.53;102267.25;5051922;28;20258;-83
2023/06/11 11:18:53;;;;;;;5.00;3.70;;;;;;;26.11;34.79;102260.44;5063434;28;20227;-84